Time;durP1;ratioP1;P1;durP2;ratioP2;P2;SDS_P1;SDS_P2;PMS_P1;PMS_P2;Temp;Humidity;BMP_temperature;BMP_pressure;BME280_temperature;BME280_humidity;BME280_pressure;Samples;Min_cycle;Max_cycle;Signal;HPM_P1;HPM_P2
2021/06/08 00:00:46;;;;;;;;;;;17.60;99.90;;;;;;5031261;28;20360;-55
2021/06/08 00:03:12;;;;;;;;;;;17.60;99.90;;;;;;5031008;28;19993;-54
2021/06/08 00:05:37;;;;;;;;;;;17.50;99.90;;;;;;5030319;28;19916;-57
2021/06/08 00:08:04;;;;;;;;;;;17.50;99.90;;;;;;5030028;28;20318;-54
2021/06/08 00:10:29;;;;;;;;;;;17.50;99.90;;;;;;5031043;28;19909;-55
2021/06/08 00:12:54;;;;;;;;;;;17.50;99.90;;;;;;5027996;28;19962;-54
2021/06/08 00:15:20;;;;;;;;;;;17.40;99.90;;;;;;5030350;28;19921;-53
2021/06/08 00:17:46;;;;;;;;;;;17.40;99.90;;;;;;5030425;28;19913;-55
2021/06/08 00:20:11;;;;;;;;;;;17.40;99.90;;;;;;5028991;28;19925;-53
2021/06/08 00:22:37;;;;;;;;;;;17.30;99.90;;;;;;5029128;28;20197;-55
2021/06/08 00:25:03;;;;;;;;;;;17.30;99.90;;;;;;5030544;28;20472;-53
2021/06/08 00:27:28;;;;;;;;;;;17.30;99.90;;;;;;5030659;28;20000;-55
2021/06/08 00:29:54;;;;;;;;;;;17.30;99.90;;;;;;5030134;28;20010;-52
2021/06/08 00:47:35;;;;;;;;;;;17.10;99.90;;;;;;5022998;28;19915;-52
2021/06/08 00:50:00;;;;;;;;;;;17.20;99.90;;;;;;5029809;28;20004;-53
2021/06/08 00:52:26;;;;;;;;;;;17.10;99.90;;;;;;5029984;28;19916;-53
2021/06/08 00:54:51;;;;;;;;;;;17.10;99.90;;;;;;5029870;28;20543;-56
2021/06/08 00:57:17;;;;;;;;;;;17.10;99.90;;;;;;5029521;28;19913;-57
2021/06/08 00:59:42;;;;;;;;;;;17.10;99.90;;;;;;5027360;28;19952;-53
2021/06/08 01:02:08;;;;;;;;;;;17.10;99.90;;;;;;5018673;28;19921;-55
2021/06/08 01:04:34;;;;;;;;;;;17.10;99.90;;;;;;5027781;28;19909;-55
2021/06/08 01:06:59;;;;;;;;;;;17.10;99.90;;;;;;5027589;28;19916;-53
2021/06/08 01:09:24;;;;;;;;;;;17.10;99.90;;;;;;5026970;28;19976;-52
2021/06/08 01:11:50;;;;;;;;;;;17.10;99.90;;;;;;5029443;28;19945;-51
2021/06/08 01:14:15;;;;;;;;;;;17.00;99.90;;;;;;5026787;28;19991;-54
2021/06/08 01:16:41;;;;;;;;;;;17.00;99.90;;;;;;5027527;28;20095;-56
2021/06/08 01:19:07;;;;;;;;;;;17.00;99.90;;;;;;5029121;28;19916;-56
2021/06/08 01:21:32;;;;;;;;;;;17.00;99.90;;;;;;5029116;28;19917;-57
2021/06/08 01:23:59;;;;;;;;;;;16.90;99.90;;;;;;5029427;28;20376;-55
2021/06/08 01:26:25;;;;;;;;;;;16.90;99.90;;;;;;5029399;28;19916;-55
2021/06/08 01:28:51;;;;;;;;;;;16.90;99.90;;;;;;5029068;28;20291;-55
2021/06/08 01:31:18;;;;;;;;;;;16.90;99.90;;;;;;5029531;28;19909;-55
2021/06/08 01:33:45;;;;;;;;;;;16.90;99.90;;;;;;5029376;28;19915;-51
2021/06/08 01:36:19;;;;;;;;;;;16.80;99.90;;;;;;5028975;28;19938;-55
2021/06/08 01:38:45;;;;;;;;;;;16.80;99.90;;;;;;5027625;28;20019;-56
2021/06/08 01:41:12;;;;;;;;;;;16.80;99.90;;;;;;5028995;28;19915;-54
2021/06/08 01:43:41;;;;;;;;;;;16.80;99.90;;;;;;5028412;28;19986;-56
2021/06/08 01:46:07;;;;;;;;;;;16.70;99.90;;;;;;5028502;28;20429;-54
2021/06/08 01:48:33;;;;;;;;;;;16.70;99.90;;;;;;5028520;28;19913;-55
2021/06/08 01:51:03;;;;;;;;;;;16.70;99.90;;;;;;5028487;28;19909;-54
2021/06/08 01:53:42;;;;;;;;;;;16.70;99.90;;;;;;5028267;28;19971;-55
2021/06/08 01:56:09;;;;;;;;;;;16.70;99.90;;;;;;5028478;28;20376;-53
2021/06/08 01:58:49;;;;;;;;;;;16.60;99.90;;;;;;5027975;28;19932;-55
2021/06/08 02:01:18;;;;;;;;;;;16.60;99.90;;;;;;5029154;28;19963;-55
2021/06/08 02:04:13;;;;;;;;;;;16.60;99.90;;;;;;5028600;28;19917;-53
2021/06/08 02:06:42;;;;;;;;;;;16.60;99.90;;;;;;5014786;28;20484;-57
2021/06/08 02:09:20;;;;;;;;;;;16.50;99.90;;;;;;5028279;28;19979;-55
2021/06/08 02:11:48;;;;;;;;;;;16.50;99.90;;;;;;5028888;28;19944;-55
2021/06/08 02:14:23;;;;;;;;;;;16.50;99.90;;;;;;5026181;28;20421;-53
2021/06/08 02:16:51;;;;;;;;;;;16.40;99.90;;;;;;5028367;28;20295;-57
2021/06/08 02:19:18;;;;;;;;;;;16.40;99.90;;;;;;5028150;28;19909;-57
2021/06/08 02:21:47;;;;;;;;;;;16.40;99.90;;;;;;5028070;28;19955;-51
2021/06/08 02:24:16;;;;;;;;;;;16.40;99.90;;;;;;5028475;28;19912;-57
2021/06/08 02:26:42;;;;;;;;;;;16.40;99.90;;;;;;5028484;28;20261;-55
2021/06/08 02:29:08;;;;;;;;;;;16.40;99.90;;;;;;5028536;28;19916;-51
2021/06/08 02:31:34;;;;;;;;;;;16.40;99.90;;;;;;5032265;28;19920;-57
2021/06/08 02:34:01;;;;;;;;;;;16.40;99.90;;;;;;5032758;28;20000;-54
2021/06/08 02:36:27;;;;;;;;;;;16.40;99.90;;;;;;5032035;28;19924;-55
2021/06/08 02:38:54;;;;;;;;;;;16.40;99.90;;;;;;5032573;28;19909;-56
2021/06/08 02:41:21;;;;;;;;;;;16.40;99.90;;;;;;5032658;28;20019;-56
2021/06/08 02:43:48;;;;;;;;;;;16.40;99.90;;;;;;5032135;28;19916;-56
2021/06/08 02:46:14;;;;;;;;;;;16.40;99.90;;;;;;5031091;28;19909;-50
2021/06/08 02:48:40;;;;;;;;;;;16.30;99.90;;;;;;5032292;28;19909;-57
2021/06/08 02:51:06;;;;;;;;;;;16.40;99.90;;;;;;5031885;28;19932;-54
2021/06/08 02:53:31;;;;;;;;;;;16.30;99.90;;;;;;5032094;28;20387;-56
2021/06/08 02:55:57;;;;;;;;;;;16.30;99.90;;;;;;5031989;28;19920;-54
2021/06/08 02:58:23;;;;;;;;;;;16.30;99.90;;;;;;5030711;28;20314;-55
2021/06/08 03:00:48;;;;;;;;;;;16.30;99.90;;;;;;5032416;28;19913;-53
2021/06/08 03:03:17;;;;;;;;;;;16.30;99.90;;;;;;5032487;28;19909;-54
2021/06/08 03:05:46;;;;;;;;;;;16.30;99.90;;;;;;5031874;28;19917;-55
2021/06/08 03:08:21;;;;;;;;;;;16.20;99.90;;;;;;5031438;28;19925;-55
2021/06/08 03:10:47;;;;;;;;;;;16.20;99.90;;;;;;5031861;28;19909;-50
2021/06/08 03:13:13;;;;;;;;;;;16.20;99.90;;;;;;5032034;28;19913;-51
2021/06/08 03:15:50;;;;;;;;;;;16.20;99.90;;;;;;5031637;28;19967;-55
2021/06/08 03:18:17;;;;;;;;;;;16.20;99.90;;;;;;5024008;28;19909;-55
2021/06/08 03:20:52;;;;;;;;;;;16.30;99.90;;;;;;5029805;28;19921;-57
2021/06/08 03:23:19;;;;;;;;;;;16.30;99.90;;;;;;5024249;28;19913;-56
2021/06/08 03:25:46;;;;;;;;;;;16.30;99.90;;;;;;5031454;28;19971;-54
2021/06/08 03:28:13;;;;;;;;;;;16.30;99.90;;;;;;5031621;28;19917;-55
2021/06/08 03:30:39;;;;;;;;;;;16.30;99.90;;;;;;5031703;28;19955;-52
2021/06/08 03:33:04;;;;;;;;;;;16.30;99.90;;;;;;5031319;28;19916;-56
2021/06/08 03:35:30;;;;;;;;;;;16.30;99.90;;;;;;5030887;28;19917;-55
2021/06/08 03:37:56;;;;;;;;;;;16.30;99.90;;;;;;5029849;28;19916;-56
2021/06/08 03:40:23;;;;;;;;;;;16.30;99.90;;;;;;5030884;28;19917;-55
2021/06/08 03:42:49;;;;;;;;;;;16.20;99.90;;;;;;5030983;28;19915;-57
2021/06/08 03:45:16;;;;;;;;;;;16.20;99.90;;;;;;5029594;28;19916;-53
2021/06/08 03:47:42;;;;;;;;;;;16.20;99.90;;;;;;5029814;28;19932;-54
2021/06/08 03:50:09;;;;;;;;;;;16.20;99.90;;;;;;5030605;28;19939;-52
2021/06/08 03:52:34;;;;;;;;;;;16.20;99.90;;;;;;5031096;28;19909;-52
2021/06/08 03:55:02;;;;;;;;;;;16.20;99.90;;;;;;5031023;28;19913;-55
2021/06/08 03:57:30;;;;;;;;;;;16.20;99.90;;;;;;5029286;28;19921;-52
2021/06/08 03:59:57;;;;;;;;;;;16.20;99.90;;;;;;5031124;28;19916;-51
2021/06/08 04:02:23;;;;;;;;;;;16.10;99.90;;;;;;5030715;28;19913;-51
2021/06/08 04:04:49;;;;;;;;;;;16.10;99.90;;;;;;5030486;28;20333;-55
2021/06/08 04:07:15;;;;;;;;;;;16.10;99.90;;;;;;5030622;28;19909;-57
2021/06/08 04:09:40;;;;;;;;;;;16.10;99.90;;;;;;5030738;28;20437;-55
2021/06/08 04:12:06;;;;;;;;;;;16.00;99.90;;;;;;5030323;28;19909;-52
2021/06/08 04:14:32;;;;;;;;;;;16.10;99.90;;;;;;5030520;28;20000;-55
2021/06/08 04:16:58;;;;;;;;;;;16.10;99.90;;;;;;5029074;28;19913;-54
2021/06/08 04:19:23;;;;;;;;;;;16.10;99.90;;;;;;5030022;28;20012;-55
2021/06/08 04:21:51;;;;;;;;;;;16.10;99.90;;;;;;5030262;28;19917;-54
2021/06/08 04:24:16;;;;;;;;;;;16.10;99.90;;;;;;5030339;28;20363;-56
2021/06/08 04:26:42;;;;;;;;;;;16.10;99.90;;;;;;5030147;28;19909;-55
2021/06/08 04:29:07;;;;;;;;;;;16.10;99.90;;;;;;5030099;28;19956;-56
2021/06/08 04:31:34;;;;;;;;;;;16.10;99.90;;;;;;5028551;28;19913;-53
2021/06/08 04:34:00;;;;;;;;;;;16.00;99.90;;;;;;5030068;28;19909;-54
2021/06/08 04:36:25;;;;;;;;;;;16.00;99.90;;;;;;5028293;28;20414;-55
2021/06/08 04:38:52;;;;;;;;;;;16.00;99.90;;;;;;5029960;28;20367;-55
2021/06/08 04:41:18;;;;;;;;;;;16.10;99.90;;;;;;5029810;28;19920;-54
2021/06/08 04:43:43;;;;;;;;;;;16.10;99.90;;;;;;5029752;28;19944;-55
2021/06/08 04:46:13;;;;;;;;;;;16.00;99.90;;;;;;5029663;28;19971;-53
2021/06/08 04:48:39;;;;;;;;;;;16.10;99.90;;;;;;5029796;28;19910;-52
2021/06/08 04:51:04;;;;;;;;;;;16.10;99.90;;;;;;5029562;28;19948;-54
2021/06/08 04:53:30;;;;;;;;;;;16.10;99.90;;;;;;5027515;28;19966;-52
2021/06/08 04:55:55;;;;;;;;;;;16.10;99.90;;;;;;5029574;28;19917;-55
2021/06/08 04:58:21;;;;;;;;;;;16.20;99.90;;;;;;5029321;28;19909;-57
2021/06/08 05:00:59;;;;;;;;;;;16.20;99.90;;;;;;5029636;28;19947;-55
2021/06/08 05:03:28;;;;;;;;;;;16.20;99.90;;;;;;5023252;28;20342;-54
2021/06/08 05:05:55;;;;;;;;;;;16.30;99.90;;;;;;5029262;28;19909;-54
2021/06/08 05:08:28;;;;;;;;;;;16.30;99.90;;;;;;5029695;28;20083;-51
2021/06/08 05:11:00;;;;;;;;;;;16.30;99.90;;;;;;5028860;28;20005;-52
2021/06/08 05:13:26;;;;;;;;;;;16.40;99.90;;;;;;5028969;28;19913;-52
2021/06/08 05:15:52;;;;;;;;;;;16.40;99.90;;;;;;5028694;28;19960;-55
2021/06/08 05:18:18;;;;;;;;;;;16.40;99.90;;;;;;5029192;28;19909;-55
2021/06/08 05:20:44;;;;;;;;;;;16.50;99.90;;;;;;5028646;28;19921;-56
2021/06/08 05:23:11;;;;;;;;;;;16.50;99.90;;;;;;5029169;28;20265;-56
2021/06/08 05:25:39;;;;;;;;;;;16.60;99.90;;;;;;5027592;28;20003;-58
2021/06/08 05:28:04;;;;;;;;;;;16.60;99.90;;;;;;5028908;28;19948;-51
2021/06/08 05:30:30;;;;;;;;;;;16.60;99.90;;;;;;5029105;28;19948;-55
2021/06/08 05:32:56;;;;;;;;;;;16.70;99.90;;;;;;5028987;28;19999;-55
2021/06/08 05:35:25;;;;;;;;;;;16.70;99.90;;;;;;5028632;28;19916;-55
2021/06/08 05:37:51;;;;;;;;;;;16.60;99.90;;;;;;5028947;28;19909;-53
2021/06/08 05:40:16;;;;;;;;;;;16.70;99.90;;;;;;5028442;28;19909;-54
2021/06/08 05:42:42;;;;;;;;;;;16.70;99.90;;;;;;5028653;28;20494;-55
2021/06/08 05:45:07;;;;;;;;;;;16.70;99.90;;;;;;5028783;28;19921;-53
2021/06/08 05:47:33;;;;;;;;;;;16.70;99.90;;;;;;5028875;28;19917;-51
2021/06/08 05:49:58;;;;;;;;;;;16.80;99.90;;;;;;5028299;28;19916;-56
2021/06/08 05:52:25;;;;;;;;;;;16.80;99.90;;;;;;5028745;28;19909;-55
2021/06/08 05:54:51;;;;;;;;;;;16.80;99.90;;;;;;5028228;28;19909;-58
2021/06/08 05:57:17;;;;;;;;;;;16.90;99.90;;;;;;5028386;28;19913;-57
2021/06/08 05:59:43;;;;;;;;;;;16.90;99.90;;;;;;5028747;28;19909;-52
2021/06/08 06:02:11;;;;;;;;;;;17.00;99.90;;;;;;5028398;28;20004;-57
2021/06/08 06:04:36;;;;;;;;;;;17.00;99.90;;;;;;5028525;28;19913;-54
2021/06/08 06:07:02;;;;;;;;;;;17.20;99.90;;;;;;5028487;28;19916;-57
2021/06/08 06:09:28;;;;;;;;;;;17.30;99.90;;;;;;5028586;28;19909;-56
2021/06/08 06:11:54;;;;;;;;;;;17.30;99.90;;;;;;5027329;28;19936;-58
2021/06/08 06:14:23;;;;;;;;;;;17.40;99.90;;;;;;5028521;28;19909;-53
2021/06/08 06:16:51;;;;;;;;;;;17.50;99.90;;;;;;5028249;28;20303;-54
2021/06/08 06:19:16;;;;;;;;;;;17.60;99.90;;;;;;5028298;28;19920;-54
2021/06/08 06:21:42;;;;;;;;;;;17.70;99.90;;;;;;5023723;28;20495;-56
2021/06/08 06:24:10;;;;;;;;;;;17.70;99.90;;;;;;5027363;28;19921;-54
2021/06/08 06:26:35;;;;;;;;;;;17.80;99.90;;;;;;5028327;28;19909;-57
2021/06/08 06:29:04;;;;;;;;;;;17.90;99.90;;;;;;5028678;28;20383;-54
2021/06/08 06:31:30;;;;;;;;;;;18.00;99.90;;;;;;5028604;28;19909;-52
2021/06/08 06:33:57;;;;;;;;;;;18.20;99.90;;;;;;5028987;28;19913;-54
2021/06/08 06:36:24;;;;;;;;;;;18.30;99.90;;;;;;5028332;28;20000;-58
2021/06/08 06:38:51;;;;;;;;;;;18.40;99.90;;;;;;5028260;28;19988;-58
2021/06/08 06:41:18;;;;;;;;;;;18.50;99.90;;;;;;5028211;28;19920;-56
2021/06/08 06:43:46;;;;;;;;;;;18.60;99.90;;;;;;5028273;28;19913;-55
2021/06/08 06:46:11;;;;;;;;;;;18.60;99.90;;;;;;5028057;28;19909;-55
2021/06/08 06:48:37;;;;;;;;;;;18.50;99.90;;;;;;5028042;28;19914;-56
2021/06/08 06:51:02;;;;;;;;;;;18.50;99.90;;;;;;5027268;28;20060;-56
2021/06/08 06:53:28;;;;;;;;;;;18.60;99.90;;;;;;5026166;28;19909;-54
2021/06/08 06:55:53;;;;;;;;;;;18.50;99.90;;;;;;5027774;28;19925;-57
2021/06/08 06:58:20;;;;;;;;;;;18.60;99.90;;;;;;5022993;28;19917;-56
2021/06/08 07:00:46;;;;;;;;;;;18.80;99.90;;;;;;5013204;28;20155;-56
2021/06/08 07:03:14;;;;;;;;;;;19.10;99.90;;;;;;5012118;28;20329;-56
2021/06/08 07:05:42;;;;;;;;;;;19.20;99.90;;;;;;5015279;28;19909;-56
2021/06/08 07:08:08;;;;;;;;;;;19.20;99.90;;;;;;5027307;28;19915;-54
2021/06/08 07:10:33;;;;;;;;;;;19.30;99.90;;;;;;5026153;28;19913;-54
2021/06/08 07:13:05;;;;;;;;;;;19.40;99.90;;;;;;5026381;28;19971;-55
2021/06/08 07:15:31;;;;;;;;;;;19.40;99.90;;;;;;5028038;28;19910;-57
2021/06/08 07:17:57;;;;;;;;;;;19.50;99.90;;;;;;5030027;28;19909;-55
2021/06/08 07:20:23;;;;;;;;;;;19.60;99.90;;;;;;5030200;28;19917;-56
2021/06/08 07:22:49;;;;;;;;;;;19.60;99.90;;;;;;5030363;28;19974;-56
2021/06/08 07:25:16;;;;;;;;;;;19.60;99.90;;;;;;5031465;28;19909;-53
2021/06/08 07:27:41;;;;;;;;;;;19.50;99.90;;;;;;5031655;28;19916;-54
2021/06/08 07:30:12;;;;;;;;;;;19.60;99.90;;;;;;5031536;28;20291;-57
2021/06/08 07:32:42;;;;;;;;;;;19.60;99.90;;;;;;5031715;28;19959;-57
2021/06/08 07:35:27;;;;;;;;;;;19.70;99.90;;;;;;5031453;28;19928;-54
2021/06/08 07:37:54;;;;;;;;;;;19.80;99.90;;;;;;5031456;28;19913;-58
2021/06/08 07:40:24;;;;;;;;;;;19.90;99.90;;;;;;5031487;28;19913;-56
2021/06/08 07:42:56;;;;;;;;;;;19.90;99.90;;;;;;5031588;28;19910;-55
2021/06/08 07:45:31;;;;;;;;;;;19.90;99.90;;;;;;5031020;28;19913;-56
2021/06/08 07:47:58;;;;;;;;;;;19.90;99.90;;;;;;5035745;28;19917;-56
2021/06/08 07:50:25;;;;;;;;;;;19.90;99.90;;;;;;5031468;28;19913;-54
2021/06/08 07:52:51;;;;;;;;;;;19.90;99.90;;;;;;5031671;28;19989;-57
2021/06/08 07:55:17;;;;;;;;;;;19.90;99.90;;;;;;5031089;28;19983;-53
2021/06/08 07:57:44;;;;;;;;;;;19.70;99.90;;;;;;5031016;28;20343;-57
2021/06/08 08:00:10;;;;;;;;;;;19.70;99.90;;;;;;5031323;28;19909;-52
2021/06/08 08:02:36;;;;;;;;;;;19.80;99.90;;;;;;5026439;28;19909;-57
2021/06/08 08:05:08;;;;;;;;;;;19.90;99.90;;;;;;5031334;28;19909;-55
2021/06/08 08:07:33;;;;;;;;;;;20.00;99.90;;;;;;5033016;28;20383;-51
2021/06/08 08:10:00;;;;;;;;;;;20.10;99.90;;;;;;5030819;28;19916;-55
2021/06/08 08:12:26;;;;;;;;;;;20.20;99.90;;;;;;5030515;28;19953;-53
2021/06/08 08:14:52;;;;;;;;;;;20.10;99.90;;;;;;5030552;28;20291;-55
2021/06/08 08:17:22;;;;;;;;;;;20.20;99.90;;;;;;5030476;28;19920;-54
2021/06/08 08:19:47;;;;;;;;;;;20.30;99.90;;;;;;5030378;28;19956;-54
2021/06/08 08:22:13;;;;;;;;;;;20.40;99.90;;;;;;5030443;28;20340;-56
2021/06/08 08:24:38;;;;;;;;;;;20.60;99.90;;;;;;5024673;28;19993;-56
2021/06/08 08:27:05;;;;;;;;;;;20.70;99.90;;;;;;5021119;28;19972;-52
2021/06/08 08:29:31;;;;;;;;;;;20.70;99.90;;;;;;5030227;28;19916;-56
2021/06/08 08:31:57;;;;;;;;;;;20.80;99.90;;;;;;5030255;28;19978;-52
2021/06/08 08:34:22;;;;;;;;;;;20.90;99.90;;;;;;5030166;28;20056;-59
2021/06/08 08:36:48;;;;;;;;;;;21.30;99.90;;;;;;5029908;28;19913;-57
2021/06/08 08:39:14;;;;;;;;;;;21.50;99.90;;;;;;5030238;28;19913;-53
2021/06/08 08:41:40;;;;;;;;;;;21.70;99.90;;;;;;5029670;28;20290;-56
2021/06/08 08:44:07;;;;;;;;;;;22.10;99.90;;;;;;5029882;28;20315;-57
2021/06/08 08:46:33;;;;;;;;;;;22.20;99.90;;;;;;5029567;28;19913;-57
2021/06/08 08:48:58;;;;;;;;;;;22.60;99.90;;;;;;5029868;28;20330;-57
2021/06/08 08:51:26;;;;;;;;;;;22.80;99.90;;;;;;5029860;28;20253;-57
2021/06/08 08:53:53;;;;;;;;;;;23.00;99.90;;;;;;5029680;28;19951;-56
2021/06/08 08:56:20;;;;;;;;;;;23.10;99.90;;;;;;5029666;28;19913;-57
2021/06/08 08:58:46;;;;;;;;;;;23.30;99.90;;;;;;5029968;28;19909;-57
2021/06/08 09:01:11;;;;;;;;;;;23.30;98.40;;;;;;5029680;28;20675;-56
2021/06/08 09:03:37;;;;;;;;;;;23.20;98.10;;;;;;5029724;28;19920;-57
2021/06/08 09:06:03;;;;;;;;;;;23.20;99.90;;;;;;5029459;28;20275;-57
2021/06/08 09:08:29;;;;;;;;;;;23.20;97.70;;;;;;5028337;28;20360;-59
2021/06/08 09:10:54;;;;;;;;;;;23.20;99.10;;;;;;5014616;28;19909;-58
2021/06/08 09:13:21;;;;;;;;;;;23.20;99.00;;;;;;5017435;28;19909;-56
2021/06/08 09:15:46;;;;;;;;;;;23.40;98.60;;;;;;5013733;28;20442;-56
2021/06/08 09:18:12;;;;;;;;;;;23.50;95.90;;;;;;5017591;28;19909;-55
2021/06/08 09:20:38;;;;;;;;;;;23.30;95.60;;;;;;5012306;28;20004;-54
2021/06/08 09:23:05;;;;;;;;;;;23.20;97.50;;;;;;5017080;28;19921;-58
2021/06/08 09:25:37;;;;;;;;;;;23.30;97.50;;;;;;5023135;28;20346;-56
2021/06/08 09:28:12;;;;;;;;;;;23.30;95.60;;;;;;5029122;28;19910;-55
2021/06/08 09:30:38;;;;;;;;;;;23.60;96.20;;;;;;5029180;28;19913;-56
2021/06/08 09:33:10;;;;;;;;;;;23.70;95.90;;;;;;5028863;28;20354;-56
2021/06/08 09:35:36;;;;;;;;;;;23.90;95.60;;;;;;5028869;28;20008;-57
2021/06/08 09:38:01;;;;;;;;;;;24.10;95.90;;;;;;5028428;28;20016;-56
2021/06/08 09:40:28;;;;;;;;;;;23.80;94.60;;;;;;5028688;28;19940;-56
2021/06/08 09:43:02;;;;;;;;;;;24.10;95.00;;;;;;5029053;28;20458;-59
2021/06/08 09:45:38;;;;;;;;;;;24.20;93.60;;;;;;5014153;28;19920;-57
2021/06/08 09:48:03;;;;;;;;;;;24.50;94.70;;;;;;5015925;28;19928;-58
2021/06/08 09:50:32;;;;;;;;;;;25.10;94.60;;;;;;5013534;28;20000;-59
2021/06/08 09:53:33;;;;;;;;;;;25.30;92.40;;;;;;5014242;28;19909;-56
2021/06/08 09:56:03;;;;;;;;;;;25.30;91.60;;;;;;5003385;28;19949;-53
2021/06/08 09:58:29;;;;;;;;;;;25.00;90.40;;;;;;5024282;28;20472;-56
2021/06/08 10:01:09;;;;;;;;;;;25.00;92.30;;;;;;5028390;28;19909;-55
2021/06/08 10:03:39;;;;;;;;;;;25.10;91.30;;;;;;5028693;28;20291;-52
2021/06/08 10:06:09;;;;;;;;;;;25.40;89.60;;;;;;5028200;28;19909;-53
2021/06/08 10:08:38;;;;;;;;;;;25.30;90.40;;;;;;5014265;28;19913;-53
2021/06/08 10:11:14;;;;;;;;;;;25.50;90.30;;;;;;5017887;28;20008;-55
2021/06/08 10:13:39;;;;;;;;;;;25.40;86.70;;;;;;5022116;28;19913;-53
2021/06/08 10:16:07;;;;;;;;;;;25.30;89.10;;;;;;5020110;28;19913;-53
2021/06/08 10:18:43;;;;;;;;;;;25.40;87.50;;;;;;5028432;28;19909;-55
2021/06/08 10:21:09;;;;;;;;;;;25.50;86.00;;;;;;5026424;28;20012;-57
2021/06/08 10:23:34;;;;;;;;;;;25.70;87.90;;;;;;5022730;28;20000;-58
2021/06/08 10:26:01;;;;;;;;;;;26.20;85.70;;;;;;5019902;28;19917;-54
2021/06/08 10:28:28;;;;;;;;;;;26.60;86.30;;;;;;5028071;28;20457;-53
2021/06/08 10:30:54;;;;;;;;;;;26.80;83.00;;;;;;5026688;28;19909;-54
2021/06/08 10:33:21;;;;;;;;;;;27.00;83.80;;;;;;5028160;28;20371;-54
2021/06/08 10:35:48;;;;;;;;;;;27.00;81.30;;;;;;5028008;28;19917;-54
2021/06/08 10:38:13;;;;;;;;;;;27.10;81.00;;;;;;5023315;28;19910;-55
2021/06/08 10:40:39;;;;;;;;;;;26.80;79.20;;;;;;5028272;28;19963;-51
2021/06/08 10:43:05;;;;;;;;;;;26.70;77.40;;;;;;5028075;28;19971;-54
2021/06/08 10:45:32;;;;;;;;;;;26.50;77.60;;;;;;5027616;28;19916;-58
2021/06/08 10:48:05;;;;;;;;;;;26.20;80.60;;;;;;5024829;28;19910;-55
2021/06/08 10:50:32;;;;;;;;;;;26.20;83.60;;;;;;5014462;28;19914;-53
2021/06/08 10:52:58;;;;;;;;;;;26.00;81.40;;;;;;5014285;28;19989;-57
2021/06/08 10:55:28;;;;;;;;;;;26.20;80.00;;;;;;5018824;28;19917;-55
2021/06/08 10:57:54;;;;;;;;;;;26.40;80.20;;;;;;5031574;28;20495;-55
2021/06/08 11:00:25;;;;;;;;;;;26.80;78.30;;;;;;5020115;28;20004;-57
2021/06/08 11:02:56;;;;;;;;;;;27.20;80.60;;;;;;5031387;28;19921;-55
2021/06/08 11:05:41;;;;;;;;;;;27.10;76.30;;;;;;5026033;28;19916;-55
2021/06/08 11:08:07;;;;;;;;;;;27.10;73.60;;;;;;5031675;28;19963;-57
2021/06/08 11:10:33;;;;;;;;;;;27.30;74.40;;;;;;5030520;28;20261;-58
2021/06/08 11:13:11;;;;;;;;;;;27.10;73.10;;;;;;5030996;28;19916;-58
2021/06/08 11:15:37;;;;;;;;;;;26.80;72.70;;;;;;5026517;28;19909;-55
2021/06/08 11:18:18;;;;;;;;;;;27.00;74.40;;;;;;5031869;28;19928;-57
2021/06/08 11:20:44;;;;;;;;;;;27.10;73.50;;;;;;5027260;28;20565;-56
2021/06/08 11:23:10;;;;;;;;;;;27.10;71.70;;;;;;5031546;28;20228;-58
2021/06/08 11:25:41;;;;;;;;;;;27.40;72.50;;;;;;5031055;28;19968;-54
2021/06/08 11:28:12;;;;;;;;;;;27.30;67.90;;;;;;5028938;28;19912;-58
2021/06/08 11:30:37;;;;;;;;;;;27.40;68.50;;;;;;5031539;28;19921;-58
2021/06/08 11:33:09;;;;;;;;;;;27.40;66.60;;;;;;5031024;28;19913;-56
2021/06/08 11:35:42;;;;;;;;;;;27.10;66.40;;;;;;5022423;28;20416;-53
2021/06/08 11:38:08;;;;;;;;;;;27.00;67.60;;;;;;5025805;28;20630;-53
2021/06/08 11:40:39;;;;;;;;;;;27.00;68.50;;;;;;5017319;28;19918;-57
2021/06/08 11:43:10;;;;;;;;;;;27.00;64.50;;;;;;5025695;28;19909;-56
2021/06/08 11:45:35;;;;;;;;;;;26.50;64.30;;;;;;5025843;28;19909;-57
2021/06/08 11:48:01;;;;;;;;;;;26.50;67.40;;;;;;5024587;28;19920;-55
2021/06/08 11:50:45;;;;;;;;;;;26.80;69.40;;;;;;5016081;28;20458;-54
2021/06/08 11:53:14;;;;;;;;;;;27.20;63.50;;;;;;5018674;28;20359;-52
2021/06/08 11:55:40;;;;;;;;;;;27.30;63.40;;;;;;5022559;28;19913;-53
2021/06/08 11:58:25;;;;;;;;;;;27.30;64.60;;;;;;5020418;28;19909;-58
2021/06/08 12:00:52;;;;;;;;;;;27.10;61.90;;;;;;5029965;28;19989;-56
2021/06/08 12:03:44;;;;;;;;;;;27.10;64.20;;;;;;5030750;28;20339;-60
2021/06/08 12:06:09;;;;;;;;;;;26.90;64.20;;;;;;5020216;28;20386;-56
2021/06/08 12:08:36;;;;;;;;;;;26.80;62.20;;;;;;5030169;28;19916;-58
2021/06/08 12:11:17;;;;;;;;;;;26.90;60.90;;;;;;5016657;28;20000;-55
2021/06/08 12:13:43;;;;;;;;;;;26.80;60.60;;;;;;5011967;28;19913;-54
2021/06/08 12:16:15;;;;;;;;;;;26.90;59.10;;;;;;5029497;28;19920;-54
2021/06/08 12:18:41;;;;;;;;;;;27.10;59.30;;;;;;5030414;28;20004;-56
2021/06/08 12:21:16;;;;;;;;;;;27.10;55.90;;;;;;5028334;28;20461;-54
2021/06/08 12:23:42;;;;;;;;;;;27.00;55.30;;;;;;5023408;28;19916;-56
2021/06/08 12:26:08;;;;;;;;;;;26.70;54.40;;;;;;5027693;28;21107;-56
2021/06/08 12:28:34;;;;;;;;;;;26.60;56.00;;;;;;5029879;28;19909;-51
2021/06/08 12:31:12;;;;;;;;;;;26.80;57.30;;;;;;5030203;28;19909;-53
2021/06/08 12:33:38;;;;;;;;;;;27.00;56.40;;;;;;5028820;28;19909;-56
2021/06/08 12:36:04;;;;;;;;;;;27.40;57.50;;;;;;5029738;28;20383;-56
2021/06/08 12:38:29;;;;;;;;;;;27.70;56.80;;;;;;5030247;28;20376;-53
2021/06/08 12:41:06;;;;;;;;;;;28.00;54.90;;;;;;5030131;28;19913;-55
2021/06/08 12:43:47;;;;;;;;;;;28.10;55.10;;;;;;5029607;28;19952;-57
2021/06/08 12:46:22;;;;;;;;;;;27.90;52.20;;;;;;5029984;28;20328;-55
2021/06/08 12:48:48;;;;;;;;;;;28.00;51.10;;;;;;5029653;28;19998;-54
2021/06/08 12:51:14;;;;;;;;;;;28.20;53.50;;;;;;5029604;28;19964;-55
2021/06/08 12:53:42;;;;;;;;;;;28.40;54.00;;;;;;5028494;28;19917;-54
2021/06/08 12:56:10;;;;;;;;;;;28.30;53.60;;;;;;5028030;28;20391;-53
2021/06/08 12:58:36;;;;;;;;;;;28.40;54.00;;;;;;5028201;28;19909;-56
2021/06/08 13:01:01;;;;;;;;;;;28.60;54.30;;;;;;5029914;28;19909;-55
2021/06/08 13:03:27;;;;;;;;;;;28.50;52.80;;;;;;5029619;28;20395;-54
2021/06/08 13:05:53;;;;;;;;;;;28.40;53.20;;;;;;5028908;28;19913;-57
2021/06/08 13:08:18;;;;;;;;;;;28.10;52.20;;;;;;5026969;28;19992;-56
2021/06/08 13:10:44;;;;;;;;;;;28.00;52.40;;;;;;5025408;28;19913;-57
2021/06/08 13:13:11;;;;;;;;;;;27.80;53.70;;;;;;5027915;28;20398;-57
2021/06/08 13:15:36;;;;;;;;;;;27.70;53.00;;;;;;5019758;28;20102;-51
2021/06/08 13:18:03;;;;;;;;;;;27.60;52.50;;;;;;5027976;28;19996;-57
2021/06/08 13:20:30;;;;;;;;;;;27.70;51.60;;;;;;5029254;28;20012;-54
2021/06/08 13:22:55;;;;;;;;;;;27.90;52.80;;;;;;5029057;28;20286;-52
2021/06/08 13:25:23;;;;;;;;;;;28.10;52.80;;;;;;5029182;28;20000;-55
2021/06/08 13:27:48;;;;;;;;;;;28.10;51.50;;;;;;5029006;28;19952;-55
2021/06/08 13:30:18;;;;;;;;;;;28.30;51.40;;;;;;5028991;28;19959;-56
2021/06/08 13:32:44;;;;;;;;;;;28.20;50.00;;;;;;5029006;28;20332;-54
2021/06/08 13:35:18;;;;;;;;;;;28.30;53.10;;;;;;5028633;28;19963;-54
2021/06/08 13:37:45;;;;;;;;;;;28.00;51.30;;;;;;5027556;28;20584;-56
2021/06/08 13:40:11;;;;;;;;;;;28.10;51.50;;;;;;5028921;28;20407;-52
2021/06/08 13:42:37;;;;;;;;;;;28.00;50.90;;;;;;5028670;28;19909;-56
2021/06/08 13:45:04;;;;;;;;;;;27.80;52.10;;;;;;5028420;28;19963;-54
2021/06/08 13:47:34;;;;;;;;;;;27.70;51.60;;;;;;5029085;28;19953;-50
2021/06/08 13:50:00;;;;;;;;;;;27.70;51.80;;;;;;5028810;28;19966;-53
2021/06/08 13:52:44;;;;;;;;;;;27.60;50.70;;;;;;5024079;28;20000;-53
2021/06/08 13:55:11;;;;;;;;;;;27.60;51.10;;;;;;5016737;28;19984;-57
2021/06/08 13:57:45;;;;;;;;;;;27.00;50.50;;;;;;5028486;28;19913;-54
2021/06/08 14:00:17;;;;;;;;;;;27.10;54.90;;;;;;5028265;28;19909;-56
2021/06/08 14:02:46;;;;;;;;;;;27.50;52.10;;;;;;5028476;28;19964;-54
2021/06/08 14:05:42;;;;;;;;;;;27.60;50.70;;;;;;5026896;28;19909;-54
2021/06/08 14:08:10;;;;;;;;;;;27.90;53.10;;;;;;5021769;28;19996;-55
2021/06/08 14:10:36;;;;;;;;;;;27.60;51.90;;;;;;5028414;28;19963;-58
2021/06/08 14:13:08;;;;;;;;;;;27.30;51.40;;;;;;5026942;28;19932;-55
2021/06/08 14:15:45;;;;;;;;;;;27.40;52.50;;;;;;5008266;28;19917;-57
2021/06/08 14:18:11;;;;;;;;;;;27.40;50.70;;;;;;5011827;28;20017;-57
2021/06/08 14:20:36;;;;;;;;;;;27.70;52.20;;;;;;5027639;28;20356;-57
2021/06/08 14:23:02;;;;;;;;;;;27.40;49.80;;;;;;5027771;28;19999;-59
2021/06/08 14:25:27;;;;;;;;;;;27.20;51.70;;;;;;5026471;28;19960;-55
2021/06/08 14:27:53;;;;;;;;;;;27.20;51.90;;;;;;5026471;28;19913;-55
2021/06/08 14:30:18;;;;;;;;;;;27.20;51.60;;;;;;5026518;28;20272;-58
2021/06/08 14:32:44;;;;;;;;;;;27.30;51.50;;;;;;5027455;28;20028;-56
2021/06/08 14:35:10;;;;;;;;;;;27.30;50.00;;;;;;5027841;28;19918;-58